createdAt,value
2022-07-31T00:01:59.054Z,95.20
2022-07-31T00:04:45.154Z,96.40
2022-07-31T00:07:31.041Z,97.10
2022-07-31T00:10:17.235Z,98.00
2022-07-31T00:13:03.643Z,98.40
2022-07-31T00:15:49.926Z,98.60
2022-07-31T00:18:35.925Z,98.40
2022-07-31T00:21:21.816Z,98.30
2022-07-31T00:24:07.838Z,98.10
2022-07-31T00:26:53.752Z,98.00
2022-07-31T00:29:40.184Z,97.90
2022-07-31T00:32:26.237Z,97.90
2022-07-31T00:35:14.136Z,97.80
2022-07-31T00:38:25.577Z,98.00
2022-07-31T00:41:06.375Z,98.40
2022-07-31T00:43:52.902Z,98.90
2022-07-31T00:46:39.022Z,99.00
2022-07-31T00:49:26.714Z,99.10
2022-07-31T00:52:23.294Z,99.00
2022-07-31T00:55:09.745Z,98.70
2022-07-31T00:57:56.030Z,98.80
2022-07-31T01:00:42.376Z,99.10
2022-07-31T01:03:28.581Z,99.90
2022-07-31T01:06:15.402Z,99.90
2022-07-31T01:09:01.370Z,99.90
2022-07-31T01:12:02.875Z,99.90
2022-07-31T01:14:54.002Z,99.90
2022-07-31T01:17:41.667Z,99.90
2022-07-31T01:20:29.199Z,99.90
2022-07-31T01:23:34.953Z,99.90
2022-07-31T01:26:56.252Z,99.90
2022-07-31T01:29:46.345Z,99.90
2022-07-31T01:32:38.530Z,99.90
2022-07-31T01:35:35.265Z,99.90
2022-07-31T01:38:25.937Z,99.90
2022-07-31T01:41:15.767Z,99.90
2022-07-31T01:44:04.432Z,99.90
2022-07-31T01:46:53.235Z,99.90
2022-07-31T01:49:41.766Z,99.90
2022-07-31T01:52:30.054Z,99.90
2022-07-31T01:55:17.670Z,99.90
2022-07-31T01:58:05.748Z,99.90
2022-07-31T02:00:55.216Z,99.90
2022-07-31T02:03:45.591Z,99.90
2022-07-31T02:06:35.158Z,99.90
2022-07-31T02:09:23.277Z,99.90
2022-07-31T02:12:12.003Z,99.90
2022-07-31T02:14:58.627Z,99.90
2022-07-31T02:17:46.133Z,99.90
2022-07-31T02:20:56.348Z,99.90
2022-07-31T02:23:44.978Z,99.70
2022-07-31T02:26:34.553Z,99.70
2022-07-31T02:29:22.833Z,99.80
2022-07-31T02:32:09.204Z,99.90
2022-07-31T02:34:56.865Z,99.90
2022-07-31T02:37:44.962Z,99.90
2022-07-31T02:40:31.262Z,99.90
2022-07-31T02:43:18.748Z,99.90
2022-07-31T02:46:06.787Z,99.90
2022-07-31T02:48:53.908Z,99.90
2022-07-31T02:51:43.575Z,99.90
2022-07-31T02:54:30.249Z,99.90
2022-07-31T02:57:17.457Z,99.90
2022-07-31T03:00:30.950Z,99.90
2022-07-31T03:03:17.803Z,99.90
2022-07-31T03:06:04.515Z,99.90
2022-07-31T03:08:51.757Z,99.90
2022-07-31T03:11:40.933Z,99.90
2022-07-31T03:14:32.669Z,99.90
2022-07-31T03:17:20.035Z,99.90
2022-07-31T03:20:07.905Z,99.70
2022-07-31T03:22:53.961Z,99.50
2022-07-31T03:25:42.058Z,99.50
2022-07-31T03:28:28.897Z,99.50
2022-07-31T03:31:15.341Z,99.30
2022-07-31T03:34:01.925Z,99.40
2022-07-31T03:36:48.837Z,99.40
2022-07-31T03:39:35.574Z,99.40
2022-07-31T03:42:28.497Z,99.40
2022-07-31T03:45:16.274Z,99.40
2022-07-31T03:48:02.995Z,99.40
2022-07-31T03:50:50.549Z,99.50
2022-07-31T03:53:37.452Z,99.60
2022-07-31T03:56:25.352Z,99.60
2022-07-31T03:59:12.057Z,99.70
2022-07-31T04:02:01.398Z,99.70
2022-07-31T04:04:58.074Z,99.70
2022-07-31T04:07:44.825Z,99.90
2022-07-31T04:10:30.938Z,99.90
2022-07-31T04:13:17.852Z,99.90
2022-07-31T04:16:03.931Z,99.90
2022-07-31T04:18:50.980Z,99.90
2022-07-31T04:21:37.974Z,99.90
2022-07-31T04:24:24.738Z,99.90
2022-07-31T04:27:36.155Z,99.90
2022-07-31T04:30:35.022Z,99.90
2022-07-31T04:33:23.591Z,99.90
2022-07-31T04:36:29.078Z,99.90
2022-07-31T04:39:15.850Z,99.90
2022-07-31T04:42:02.454Z,99.90
2022-07-31T04:44:52.014Z,99.90
2022-07-31T04:47:40.794Z,99.90
2022-07-31T04:50:26.661Z,99.90
2022-07-31T04:53:17.593Z,99.90
2022-07-31T04:56:23.256Z,99.90
2022-07-31T04:59:12.414Z,99.90
2022-07-31T05:02:01.415Z,99.90
2022-07-31T05:04:52.622Z,99.90
2022-07-31T05:07:45.679Z,99.90
2022-07-31T05:10:55.082Z,99.90
2022-07-31T05:13:42.044Z,99.90
2022-07-31T05:16:29.354Z,99.80
2022-07-31T05:19:16.886Z,99.70
2022-07-31T05:22:41.316Z,99.80
2022-07-31T05:25:52.749Z,99.60
2022-07-31T05:28:39.273Z,99.70
2022-07-31T05:31:25.806Z,99.70
2022-07-31T05:34:11.693Z,99.80
2022-07-31T05:37:01.066Z,99.70
2022-07-31T05:39:49.122Z,99.50
2022-07-31T05:42:55.225Z,99.40
2022-07-31T05:46:06.170Z,99.40
2022-07-31T05:48:52.322Z,99.00
2022-07-31T05:51:42.374Z,99.00
2022-07-31T05:54:29.003Z,98.90
2022-07-31T05:57:34.622Z,99.20
2022-07-31T06:00:22.531Z,99.10
2022-07-31T06:03:10.759Z,99.20
2022-07-31T06:06:17.040Z,99.00
2022-07-31T06:09:05.053Z,98.50
2022-07-31T06:11:55.774Z,99.00
2022-07-31T06:14:41.745Z,98.70
2022-07-31T06:17:51.247Z,98.00
2022-07-31T06:20:48.365Z,98.30
2022-07-31T06:23:34.469Z,97.70
2022-07-31T06:26:43.751Z,97.40
2022-07-31T06:29:41.467Z,97.40
2022-07-31T06:32:29.101Z,97.30
2022-07-31T06:35:15.103Z,97.20
2022-07-31T06:38:30.740Z,96.60
2022-07-31T06:41:44.405Z,96.60
2022-07-31T06:44:49.155Z,96.20
2022-07-31T06:47:54.490Z,95.90
2022-07-31T06:51:28.280Z,95.90
2022-07-31T06:54:12.025Z,95.80
2022-07-31T06:56:58.402Z,95.70
2022-07-31T06:59:44.641Z,95.40
2022-07-31T07:02:31.425Z,95.30
2022-07-31T07:05:17.989Z,95.00
2022-07-31T07:08:09.174Z,94.90
2022-07-31T07:10:55.356Z,94.60
2022-07-31T07:13:49.473Z,94.50
2022-07-31T07:16:36.943Z,94.90
2022-07-31T07:19:22.854Z,94.60
2022-07-31T07:22:08.941Z,94.50
2022-07-31T07:24:56.594Z,94.40
2022-07-31T07:27:42.972Z,94.20
2022-07-31T07:30:29.505Z,94.10
2022-07-31T07:33:41.489Z,94.40
2022-07-31T07:36:25.308Z,94.30
2022-07-31T07:39:15.997Z,93.70
2022-07-31T07:42:03.259Z,93.90
2022-07-31T07:44:49.904Z,94.10
2022-07-31T07:48:04.900Z,94.20
2022-07-31T07:50:43.954Z,93.80
2022-07-31T07:53:47.125Z,93.50
2022-07-31T07:56:39.097Z,93.10
2022-07-31T07:59:45.528Z,92.90
2022-07-31T08:03:47.439Z,93.00
2022-07-31T08:05:59.630Z,92.80
2022-07-31T08:08:45.541Z,92.60
2022-07-31T08:11:31.761Z,92.80
2022-07-31T08:14:28.897Z,92.70
2022-07-31T08:17:34.018Z,92.20
2022-07-31T08:20:20.733Z,92.20
2022-07-31T08:23:08.158Z,92.00
2022-07-31T08:25:55.383Z,91.30
2022-07-31T08:28:50.642Z,91.30
2022-07-31T08:31:39.461Z,91.20
2022-07-31T08:34:45.817Z,90.90
2022-07-31T08:37:52.338Z,91.00
2022-07-31T08:40:43.205Z,90.80
2022-07-31T08:44:00.066Z,91.00
2022-07-31T08:46:39.163Z,90.40
2022-07-31T08:49:29.488Z,90.30
2022-07-31T08:52:25.024Z,90.10
2022-07-31T08:55:55.195Z,90.00
2022-07-31T08:58:24.554Z,89.40
2022-07-31T09:01:15.126Z,88.70
2022-07-31T09:04:02.281Z,88.40
2022-07-31T09:06:48.489Z,90.10
2022-07-31T09:09:50.959Z,89.00
2022-07-31T09:12:38.056Z,88.80
2022-07-31T09:15:31.442Z,88.60
2022-07-31T09:18:22.110Z,87.60
2022-07-31T09:21:15.670Z,86.80
2022-07-31T09:24:01.812Z,85.60
2022-07-31T09:26:53.607Z,82.90
2022-07-31T09:29:45.385Z,81.70
2022-07-31T09:32:45.874Z,82.30
2022-07-31T09:35:50.788Z,80.00
2022-07-31T09:38:41.063Z,80.20
2022-07-31T09:42:00.954Z,76.80
2022-07-31T09:45:18.764Z,76.20
2022-07-31T09:48:08.298Z,74.50
2022-07-31T09:51:05.494Z,74.00
2022-07-31T09:53:56.489Z,73.40
2022-07-31T09:57:15.017Z,72.50
2022-07-31T10:00:11.768Z,68.90
2022-07-31T10:03:03.674Z,66.00
2022-07-31T10:05:51.774Z,64.30
2022-07-31T10:08:40.161Z,62.40
2022-07-31T10:11:46.206Z,60.30
2022-07-31T10:14:41.192Z,60.60
2022-07-31T10:17:35.997Z,59.70
2022-07-31T10:20:37.538Z,59.00
2022-07-31T10:23:54.103Z,58.40
2022-07-31T10:27:00.294Z,58.50
2022-07-31T10:29:49.777Z,60.40
2022-07-31T10:32:37.177Z,60.10
2022-07-31T10:36:05.770Z,59.40
2022-07-31T10:39:24.833Z,59.80
2022-07-31T10:42:31.573Z,58.50
2022-07-31T10:45:18.544Z,58.40
2022-07-31T10:48:12.546Z,57.40
2022-07-31T10:51:27.334Z,58.10
2022-07-31T10:54:17.750Z,57.70
2022-07-31T10:57:32.890Z,57.60
2022-07-31T11:00:38.670Z,57.70
2022-07-31T11:03:49.651Z,57.40
2022-07-31T11:06:40.792Z,56.60
2022-07-31T11:09:51.181Z,56.60
2022-07-31T11:13:05.080Z,55.30
2022-07-31T11:16:09.969Z,56.00
2022-07-31T11:19:09.556Z,55.80
2022-07-31T11:21:57.367Z,55.00
2022-07-31T11:24:55.409Z,54.90
2022-07-31T11:27:41.415Z,55.40
2022-07-31T11:30:27.485Z,55.80
2022-07-31T11:33:13.486Z,56.30
2022-07-31T11:36:07.882Z,56.90
2022-07-31T11:39:00.535Z,57.00
2022-07-31T11:41:48.610Z,57.30
2022-07-31T11:44:35.770Z,58.10
2022-07-31T11:48:09.705Z,56.00
2022-07-31T11:50:30.973Z,56.30
2022-07-31T11:53:18.523Z,56.00
2022-07-31T11:56:05.355Z,55.90
2022-07-31T11:58:53.791Z,55.70
2022-07-31T12:01:40.815Z,55.60
2022-07-31T12:04:27.141Z,55.20
2022-07-31T12:07:14.074Z,54.20
2022-07-31T12:10:03.417Z,53.80
2022-07-31T12:12:50.364Z,54.80
2022-07-31T12:15:36.749Z,55.40
2022-07-31T12:18:23.185Z,55.20
2022-07-31T12:21:12.053Z,55.80
2022-07-31T12:23:58.363Z,54.80
2022-07-31T12:26:50.950Z,54.70
2022-07-31T12:29:38.851Z,55.20
2022-07-31T12:32:26.479Z,54.80
2022-07-31T12:35:12.649Z,55.20
2022-07-31T12:37:58.853Z,54.80
2022-07-31T12:40:48.194Z,55.60
2022-07-31T12:43:34.179Z,56.00
2022-07-31T12:46:37.874Z,56.00
2022-07-31T12:49:24.153Z,54.60
2022-07-31T12:52:10.474Z,55.40
2022-07-31T12:54:57.046Z,55.50
2022-07-31T12:57:50.482Z,56.00
2022-07-31T13:00:40.131Z,56.80
2022-07-31T13:03:39.065Z,55.40
2022-07-31T13:06:32.152Z,56.50
2022-07-31T13:09:18.708Z,56.20
2022-07-31T13:12:05.480Z,55.60
2022-07-31T13:14:51.662Z,55.00
2022-07-31T13:17:41.040Z,55.70
2022-07-31T13:20:31.079Z,56.70
2022-07-31T13:23:17.555Z,56.20
2022-07-31T13:26:03.556Z,54.80
2022-07-31T13:28:49.561Z,53.40
2022-07-31T13:31:35.545Z,52.60
2022-07-31T13:34:21.467Z,51.10
2022-07-31T13:37:07.632Z,50.90
2022-07-31T13:39:53.982Z,48.70
2022-07-31T13:42:40.191Z,48.10
2022-07-31T13:45:26.623Z,50.30
2022-07-31T13:48:13.293Z,50.80
2022-07-31T13:50:59.725Z,50.40
2022-07-31T13:53:46.322Z,51.00
2022-07-31T13:56:38.781Z,51.70
2022-07-31T13:59:29.644Z,52.00
2022-07-31T14:02:16.038Z,50.70
2022-07-31T14:05:02.714Z,51.10
2022-07-31T14:07:51.836Z,52.00
2022-07-31T14:10:39.621Z,52.40
2022-07-31T14:13:28.970Z,52.30
2022-07-31T14:16:14.851Z,52.70
2022-07-31T14:19:01.477Z,53.10
2022-07-31T14:21:50.040Z,53.60
2022-07-31T14:24:49.372Z,53.90
2022-07-31T14:27:38.689Z,53.90
2022-07-31T14:30:25.094Z,52.70
2022-07-31T14:33:13.781Z,52.50
2022-07-31T14:35:59.971Z,52.20
2022-07-31T14:38:45.975Z,53.30
2022-07-31T14:41:31.901Z,52.50
2022-07-31T14:44:21.459Z,53.10
2022-07-31T14:47:15.147Z,52.80
2022-07-31T14:50:07.334Z,53.80
2022-07-31T14:52:56.705Z,52.80
2022-07-31T14:55:43.017Z,53.20
2022-07-31T14:58:28.999Z,52.60
2022-07-31T15:01:15.535Z,52.80
2022-07-31T15:04:02.142Z,52.70
2022-07-31T15:06:56.117Z,51.40
2022-07-31T15:09:49.071Z,51.20
2022-07-31T15:12:35.469Z,51.60
2022-07-31T15:15:21.702Z,51.50
2022-07-31T15:18:07.600Z,52.30
2022-07-31T15:20:54.303Z,52.10
2022-07-31T15:23:40.506Z,51.90
2022-07-31T15:26:26.412Z,52.20
2022-07-31T15:29:12.509Z,52.20
2022-07-31T15:31:58.786Z,52.20
2022-07-31T15:34:44.752Z,52.00
2022-07-31T15:37:33.923Z,51.90
2022-07-31T15:40:20.177Z,52.40
2022-07-31T15:43:06.101Z,52.60
2022-07-31T15:45:51.999Z,52.60
2022-07-31T15:48:38.358Z,52.80
2022-07-31T15:51:24.569Z,52.50
2022-07-31T15:54:10.534Z,52.20
2022-07-31T15:56:56.748Z,52.40
2022-07-31T15:59:43.494Z,52.30
2022-07-31T16:02:29.644Z,52.70
2022-07-31T16:05:21.837Z,53.00
2022-07-31T16:08:31.561Z,53.20
2022-07-31T16:11:20.860Z,53.50
2022-07-31T16:14:07.010Z,53.10
2022-07-31T16:16:52.988Z,53.50
2022-07-31T16:19:42.961Z,53.50
2022-07-31T16:22:28.950Z,53.60
2022-07-31T16:25:15.038Z,53.90
2022-07-31T16:28:00.950Z,54.00
2022-07-31T16:30:47.044Z,53.90
2022-07-31T16:33:33.045Z,54.20
2022-07-31T16:36:20.931Z,53.70
2022-07-31T16:39:20.061Z,54.40
2022-07-31T16:42:06.966Z,54.90
2022-07-31T16:44:56.485Z,54.40
2022-07-31T16:47:51.107Z,54.30
2022-07-31T16:50:37.877Z,53.40
2022-07-31T16:54:10.911Z,53.40
2022-07-31T16:56:32.962Z,53.40
2022-07-31T16:59:19.019Z,53.50
2022-07-31T17:02:06.406Z,53.50
2022-07-31T17:04:54.225Z,53.80
2022-07-31T17:07:40.491Z,53.90
2022-07-31T17:10:27.079Z,54.30
2022-07-31T17:13:14.150Z,54.00
2022-07-31T17:16:00.207Z,54.00
2022-07-31T17:18:49.472Z,54.00
2022-07-31T17:21:38.846Z,54.80
2022-07-31T17:24:31.638Z,55.00
2022-07-31T17:27:18.770Z,54.80
2022-07-31T17:30:05.493Z,54.90
2022-07-31T17:32:51.595Z,55.30
2022-07-31T17:35:37.662Z,55.20
2022-07-31T17:38:24.363Z,55.40
2022-07-31T17:41:24.655Z,55.60
2022-07-31T17:44:12.205Z,55.90
2022-07-31T17:46:58.319Z,56.00
2022-07-31T17:49:45.279Z,56.50
2022-07-31T17:52:31.167Z,56.60
2022-07-31T17:55:16.997Z,57.00
2022-07-31T17:58:02.963Z,56.70
2022-07-31T18:00:49.552Z,57.00
2022-07-31T18:03:35.494Z,57.40
2022-07-31T18:06:21.494Z,57.00
2022-07-31T18:09:07.339Z,57.10
2022-07-31T18:11:54.580Z,57.20
2022-07-31T18:14:40.877Z,57.70
2022-07-31T18:17:30.642Z,57.90
2022-07-31T18:20:19.346Z,58.30
2022-07-31T18:23:05.294Z,58.30
2022-07-31T18:25:58.401Z,58.60
2022-07-31T18:28:44.635Z,59.00
2022-07-31T18:31:34.394Z,59.10
2022-07-31T18:34:21.930Z,59.40
2022-07-31T18:37:07.823Z,59.80
2022-07-31T18:39:54.982Z,60.10
2022-07-31T18:42:41.182Z,60.30
2022-07-31T18:45:27.701Z,60.50
2022-07-31T18:48:13.773Z,60.90
2022-07-31T18:51:04.376Z,61.30
2022-07-31T18:53:51.948Z,61.40
2022-07-31T18:56:40.679Z,61.80
2022-07-31T18:59:26.869Z,61.90
2022-07-31T19:02:12.761Z,62.00
2022-07-31T19:04:58.811Z,62.50
2022-07-31T19:07:44.696Z,62.60
2022-07-31T19:10:35.160Z,62.70
2022-07-31T19:13:21.532Z,63.00
2022-07-31T19:16:07.583Z,63.10
2022-07-31T19:18:53.720Z,63.30
2022-07-31T19:21:42.968Z,63.50
2022-07-31T19:24:29.577Z,63.90
2022-07-31T19:27:16.214Z,63.90
2022-07-31T19:30:02.850Z,64.00
2022-07-31T19:32:49.029Z,64.10
2022-07-31T19:35:34.940Z,64.30
2022-07-31T19:38:44.286Z,64.30
2022-07-31T19:41:30.455Z,64.30
2022-07-31T19:44:16.406Z,65.00
2022-07-31T19:47:02.397Z,64.80
2022-07-31T19:49:48.374Z,65.10
2022-07-31T19:52:34.831Z,65.30
2022-07-31T19:55:20.865Z,65.60
2022-07-31T19:58:06.769Z,65.60
2022-07-31T20:00:52.746Z,65.90
2022-07-31T20:03:39.003Z,66.10
2022-07-31T20:06:26.215Z,66.30
2022-07-31T20:09:16.591Z,66.60
2022-07-31T20:12:03.041Z,66.60
2022-07-31T20:14:49.431Z,67.00
2022-07-31T20:17:35.730Z,67.20
2022-07-31T20:20:21.618Z,67.50
2022-07-31T20:23:07.659Z,67.30
2022-07-31T20:25:54.159Z,67.50
2022-07-31T20:28:40.604Z,67.60
2022-07-31T20:31:26.852Z,67.50
2022-07-31T20:34:13.278Z,67.60
2022-07-31T20:36:59.766Z,67.60
2022-07-31T20:39:45.753Z,67.30
2022-07-31T20:42:32.300Z,67.40
2022-07-31T20:45:18.255Z,67.30
2022-07-31T20:48:04.518Z,67.20
2022-07-31T20:50:51.081Z,67.30
2022-07-31T20:53:37.507Z,67.60
2022-07-31T20:56:23.729Z,67.60
2022-07-31T20:59:10.024Z,67.60
2022-07-31T21:01:59.982Z,67.70
2022-07-31T21:04:45.947Z,68.10
2022-07-31T21:07:32.064Z,68.20
2022-07-31T21:10:18.132Z,68.30
2022-07-31T21:13:04.415Z,68.40
2022-07-31T21:15:51.458Z,68.60
2022-07-31T21:18:43.042Z,68.80
2022-07-31T21:21:30.069Z,69.10
2022-07-31T21:24:16.351Z,69.30
2022-07-31T21:27:05.148Z,69.50
2022-07-31T21:29:55.149Z,69.70
2022-07-31T21:32:43.084Z,70.10
2022-07-31T21:35:36.337Z,70.50
2022-07-31T21:38:23.857Z,70.70
2022-07-31T21:41:09.776Z,71.10
2022-07-31T21:43:58.527Z,71.50
2022-07-31T21:46:48.215Z,71.80
2022-07-31T21:49:38.867Z,72.00
2022-07-31T21:52:27.292Z,72.30
2022-07-31T21:55:13.562Z,72.50
2022-07-31T21:58:00.168Z,72.80
2022-07-31T22:00:46.596Z,73.00
2022-07-31T22:03:33.077Z,73.30
2022-07-31T22:06:37.671Z,73.50
2022-07-31T22:09:26.593Z,73.80
2022-07-31T22:12:12.384Z,74.30
2022-07-31T22:14:58.453Z,73.90
2022-07-31T22:17:46.749Z,74.10
2022-07-31T22:20:33.247Z,74.50
2022-07-31T22:23:19.659Z,74.60
2022-07-31T22:26:06.373Z,74.80
2022-07-31T22:28:53.554Z,75.10
2022-07-31T22:31:39.797Z,75.30
2022-07-31T22:34:37.744Z,75.40
2022-07-31T22:37:26.080Z,75.50
2022-07-31T22:40:12.451Z,75.80
2022-07-31T22:42:59.278Z,76.10
2022-07-31T22:45:48.914Z,76.20
2022-07-31T22:48:36.188Z,76.50
2022-07-31T22:51:22.133Z,76.70
2022-07-31T22:54:08.021Z,76.70
2022-07-31T22:56:54.276Z,76.80
2022-07-31T22:59:43.174Z,76.80
2022-07-31T23:02:29.978Z,76.70
2022-07-31T23:05:16.437Z,76.60
2022-07-31T23:08:03.030Z,76.40
2022-07-31T23:10:48.979Z,76.20
2022-07-31T23:13:35.393Z,76.10
2022-07-31T23:16:21.708Z,76.30
2022-07-31T23:19:07.841Z,76.00
2022-07-31T23:21:54.023Z,75.80
2022-07-31T23:24:39.830Z,75.70
2022-07-31T23:27:26.108Z,76.20
2022-07-31T23:30:12.765Z,75.70
2022-07-31T23:32:58.862Z,75.90
2022-07-31T23:35:44.728Z,75.80
2022-07-31T23:38:30.518Z,75.70
2022-07-31T23:41:36.468Z,75.50
2022-07-31T23:44:25.130Z,75.20
2022-07-31T23:47:11.625Z,75.60
2022-07-31T23:50:04.042Z,75.10
2022-07-31T23:52:50.264Z,74.90
2022-07-31T23:55:38.508Z,74.80
2022-07-31T23:58:28.725Z,75.10
